Fitti — 9A4462 — position and weather

sailwx.info

Track history (hours):
 
Tides and Currents Weather Stations Pressure Air Temp Water Temp Dewpoint Dewpoint Depression Visibility Wind Speed Wind Dir Waves Ship Positions

Fitti

Last reported at 2018-Apr-10 02:33 UTC. Time now 2018-Apr-25 16:16 UTC.
Position N 38°19' E 015°27'.
Warning: this ship's position is 15 days out of date.

Length 12 m.

Type: Sailing vessel. MMSI: 238137240.

Date/timePositionNaut miles runAvg speedWind from/ knotsBaromVisibWave heightAir tempDewpointWater temp
2018-Apr-10 02:33N 38°19' E 015°27'1 6.9
2018-Apr-10 02:26N 38°19' E 015°26'3 7.0
2018-Apr-10 02:00N 38°18' E 015°23'8 7.0
2018-Apr-10 00:52N 38°18' E 015°12'72 2.0
2018-Apr-08 13:00N 38°07' E 013°42'3 5.9
2018-Apr-08 12:29N 38°07' E 013°38'3 5.9
2018-Apr-08 11:59N 38°08' E 013°34'3 6.1
2018-Apr-08 11:30N 38°08' E 013°31'3 5.9
2018-Apr-08 10:58N 38°09' E 013°27'2 3.7
2018-Apr-08 10:30N 38°09' E 013°25'2 3.4
2018-Apr-08 09:59N 38°09' E 013°22'0 0.7
2018-Apr-08 09:27N 38°09' E 013°23'0 0.0
2018-Apr-08 08:57N 38°09' E 013°23'0 0.0
2018-Apr-08 08:27N 38°09' E 013°23'0 0.0
2018-Apr-08 07:54N 38°09' E 013°23'0 0.0
2018-Apr-08 07:27N 38°09' E 013°23'0 0.0
2018-Apr-08 07:00N 38°09' E 013°23'0 0.0
2018-Apr-08 06:30N 38°09' E 013°23'0 0.0
2018-Apr-08 05:57N 38°09' E 013°23'0 0.0
2018-Apr-08 05:30N 38°09' E 013°23'0 0.0
2018-Apr-08 05:00N 38°09' E 013°23'0 0.0
2018-Apr-08 04:30N 38°09' E 013°23'0 0.0
2018-Apr-08 04:00N 38°09' E 013°23'0 0.0
2018-Apr-08 03:30N 38°09' E 013°23'0 0.0
2018-Apr-08 03:00N 38°09' E 013°23'0 0.0
2018-Apr-08 02:18N 38°09' E 013°23'0 0.0
2018-Apr-08 02:00N 38°09' E 013°23'0 0.0
2018-Apr-08 01:30N 38°09' E 013°23'0 0.0
2018-Apr-08 01:00N 38°09' E 013°23'0 0.0
2018-Apr-08 00:30N 38°09' E 013°23'0 0.0
2018-Apr-08 00:00N 38°09' E 013°23'0 0.0
2018-Apr-07 23:18N 38°09' E 013°23'0 0.0
2018-Apr-07 22:51N 38°09' E 013°23'0 0.0
2018-Apr-07 22:24N 38°09' E 013°23'0 0.0
2018-Apr-07 21:54N 38°09' E 013°23'0 0.0
2018-Apr-07 21:24N 38°09' E 013°23'0 0.0
2018-Apr-07 20:54N 38°09' E 013°23'0 0.0
2018-Apr-07 20:24N 38°09' E 013°23'0 0.0
2018-Apr-07 19:54N 38°09' E 013°23'0 0.0
2018-Apr-07 19:27N 38°09' E 013°23'0 0.1
2018-Apr-07 19:00N 38°09' E 013°23'3 5.2
2018-Apr-07 18:30N 38°12' E 013°22'3 6.7
2018-Apr-07 18:00N 38°14' E 013°19'3 6.4
2018-Apr-07 17:29N 38°15' E 013°15'3 6.2
2018-Apr-07 17:00N 38°16' E 013°12'3 6.0
2018-Apr-07 16:30N 38°18' E 013°08'188 6.3
2018-Apr-06 10:30N 39°08' E 009°16'3 6.2
2018-Apr-06 09:59N 39°09' E 009°13'4 7.0
2018-Apr-06 09:29N 39°10' E 009°08'3 5.3
2018-Apr-06 08:59N 39°12' E 009°07'0 0.5
2018-Apr-06 08:29N 39°13' E 009°07'0 0.1
2018-Apr-06 08:00N 39°13' E 009°07'0 0.0
2018-Apr-06 07:30N 39°13' E 009°07'0 0.0
2018-Apr-06 07:00N 39°13' E 009°07'0 0.0
2018-Apr-06 06:30N 39°13' E 009°07'0 0.0
2018-Apr-06 06:00N 39°13' E 009°07'0 0.0
2018-Apr-06 05:30N 39°13' E 009°07'0 0.0
2018-Apr-06 05:00N 39°13' E 009°07'0 0.0
2018-Apr-06 04:30N 39°13' E 009°07'0 0.0
2018-Apr-06 04:00N 39°13' E 009°07'0 0.0
2018-Apr-06 03:30N 39°13' E 009°07'0 0.0
2018-Apr-06 03:00N 39°13' E 009°07'0 0.0
2018-Apr-06 02:30N 39°13' E 009°07'0 0.0
2018-Apr-06 02:00N 39°13' E 009°07'0 0.0
2018-Apr-06 01:30N 39°13' E 009°07'0 0.0
2018-Apr-06 01:00N 39°13' E 009°07'0 0.0
2018-Apr-06 00:30N 39°13' E 009°07'0 0.0
2018-Apr-06 00:00N 39°13' E 009°07'0 0.0
2018-Apr-05 23:30N 39°13' E 009°07'0 0.0
2018-Apr-05 23:00N 39°13' E 009°07'0 0.0
2018-Apr-05 22:30N 39°13' E 009°07'0 0.0
2018-Apr-05 22:00N 39°13' E 009°07'0 0.0
2018-Apr-05 21:30N 39°13' E 009°07'0 0.0
2018-Apr-05 21:00N 39°13' E 009°07'0 0.0
2018-Apr-05 20:30N 39°13' E 009°07'0 0.0
2018-Apr-05 20:00N 39°13' E 009°07'0 0.0
2018-Apr-05 19:30N 39°13' E 009°07'0 0.0
2018-Apr-05 19:00N 39°13' E 009°07'0 0.0
2018-Apr-05 18:30N 39°13' E 009°07'0 0.0
2018-Apr-05 18:00N 39°13' E 009°07'0 0.0
2018-Apr-05 17:30N 39°13' E 009°07'0 0.0
2018-Apr-05 17:00N 39°13' E 009°07'0 0.0
2018-Apr-05 16:30N 39°13' E 009°07'0 0.0
2018-Apr-05 16:00N 39°13' E 009°07'2 3.2
2018-Apr-05 15:30N 39°11' E 009°07'3 5.0
2018-Apr-05 14:59N 39°09' E 009°07'2 4.6
2018-Apr-05 14:30N 39°06' E 009°07'3 5.6
2018-Apr-05 14:01N 39°04' E 009°06'294 5.8
2018-Apr-03 11:09N 39°20' E 002°48'1 6.1
2018-Apr-03 11:00N 39°21' E 002°47'3 5.5
2018-Apr-03 10:31N 39°23' E 002°45'3 5.6
2018-Apr-03 10:00N 39°25' E 002°43'3 5.5
2018-Apr-03 09:30N 39°28' E 002°42'2 5.0
2018-Apr-03 09:00N 39°30' E 002°44'1 1.7
2018-Apr-03 08:28N 39°30' E 002°45'0 0.0
2018-Apr-03 07:58N 39°30' E 002°45'0 0.0
2018-Apr-03 07:25N 39°30' E 002°45'0 0.0
2018-Apr-03 06:58N 39°30' E 002°45'0 0.0
2018-Apr-03 06:28N 39°30' E 002°45'0 0.0
2018-Apr-03 05:58N 39°30' E 002°45'0 0.0
2018-Apr-03 05:28N 39°30' E 002°45'0 0.0
2018-Apr-03 04:58N 39°30' E 002°45'0 0.0
2018-Apr-03 04:28N 39°30' E 002°45'0 0.0
2018-Apr-03 03:58N 39°30' E 002°45'0 0.0
2018-Apr-03 03:28N 39°30' E 002°45'0 0.0
2018-Apr-03 02:58N 39°30' E 002°45'0 0.0
2018-Apr-03 02:28N 39°30' E 002°45'0 0.0
2018-Apr-03 01:58N 39°30' E 002°45'0 0.0
2018-Apr-03 01:28N 39°30' E 002°45'0 0.0
2018-Apr-03 00:58N 39°30' E 002°45'0 0.0
2018-Apr-03 00:28N 39°30' E 002°45'0 0.0
2018-Apr-02 23:13N 39°30' E 002°45'0 0.0
2018-Apr-02 22:58N 39°30' E 002°45'0 0.0
2018-Apr-02 22:28N 39°30' E 002°45'0 0.0
2018-Apr-02 21:55N 39°30' E 002°45'0 0.0
2018-Apr-02 21:30N 39°30' E 002°45'0 0.0
2018-Apr-02 21:00N 39°30' E 002°45'0 0.0
2018-Apr-02 20:30N 39°30' E 002°45'0 0.0
2018-Apr-02 20:00N 39°30' E 002°45'0 0.0
2018-Apr-02 19:30N 39°30' E 002°45'0 0.0
2018-Apr-02 19:00N 39°30' E 002°45'0 0.0
2018-Apr-02 18:30N 39°30' E 002°45'0 0.0
2018-Apr-02 18:00N 39°30' E 002°45'0 0.0
2018-Apr-02 17:30N 39°30' E 002°45'0 0.0
2018-Apr-02 17:00N 39°30' E 002°45'0 0.0
2018-Apr-02 16:30N 39°30' E 002°45'0 0.0
2018-Apr-02 16:00N 39°30' E 002°45'0 0.0
2018-Apr-02 15:30N 39°30' E 002°45'0 0.0
2018-Apr-02 15:00N 39°30' E 002°45'0 0.0
2018-Apr-02 14:30N 39°30' E 002°45'0 0.0
2018-Apr-02 13:58N 39°30' E 002°45'0 0.0
2018-Apr-02 13:25N 39°30' E 002°45'0 0.0
2018-Apr-02 12:58N 39°30' E 002°45'0 0.0
2018-Apr-02 12:28N 39°30' E 002°45'0 0.0
2018-Apr-02 11:58N 39°30' E 002°45'0 0.0
2018-Apr-02 11:28N 39°30' E 002°45'0 0.0
2018-Apr-02 10:58N 39°30' E 002°45'0 0.0
2018-Apr-02 10:28N 39°30' E 002°45'0 0.0
2018-Apr-02 09:58N 39°30' E 002°45'0 0.0
2018-Apr-02 09:28N 39°30' E 002°45'0 0.0
2018-Apr-02 08:58N 39°30' E 002°45'0 0.0
2018-Apr-02 08:28N 39°30' E 002°45'0 0.0
2018-Apr-02 07:58N 39°30' E 002°45'0 0.0
2018-Apr-02 07:28N 39°30' E 002°45'0 0.0
2018-Apr-02 06:58N 39°30' E 002°45'0 0.0
2018-Apr-02 06:28N 39°30' E 002°45'0 0.0
2018-Apr-02 05:58N 39°30' E 002°45'0 0.0
2018-Apr-02 05:28N 39°30' E 002°45'0 0.0
2018-Apr-02 04:58N 39°30' E 002°45'0 0.0
2018-Apr-02 04:28N 39°30' E 002°45'0 0.0
2018-Apr-02 03:58N 39°30' E 002°45'0 0.0
2018-Apr-02 03:28N 39°30' E 002°45'0 0.0
2018-Apr-02 02:58N 39°30' E 002°45'0 0.0
2018-Apr-02 02:28N 39°30' E 002°45'0 0.0
2018-Apr-02 01:58N 39°30' E 002°45'0 0.0
2018-Apr-02 01:28N 39°30' E 002°45'0 0.0
2018-Apr-02 00:58N 39°30' E 002°45'0 0.0
2018-Apr-02 00:28N 39°30' E 002°45'0 0.0
2018-Apr-01 23:59N 39°30' E 002°45'0 0.0
2018-Apr-01 23:29N 39°30' E 002°45'0 0.0
2018-Apr-01 22:59N 39°30' E 002°45'0 0.0
2018-Apr-01 22:29N 39°30' E 002°45'0 0.0
2018-Apr-01 21:59N 39°30' E 002°45'0 0.0
2018-Apr-01 21:30N 39°30' E 002°45'0 0.0
2018-Apr-01 20:59N 39°30' E 002°45'0 0.0
2018-Apr-01 20:29N 39°30' E 002°45'0 0.0
2018-Apr-01 19:59N 39°30' E 002°45'0 0.0
2018-Apr-01 19:29N 39°30' E 002°45'0 0.0
2018-Apr-01 18:59N 39°30' E 002°45'0 0.0
2018-Apr-01 18:29N 39°30' E 002°45'0 0.0
2018-Apr-01 17:59N 39°30' E 002°45'0 0.0
2018-Apr-01 17:29N 39°30' E 002°45'0 0.0
2018-Apr-01 16:59N 39°30' E 002°45'1 3.1
2018-Apr-01 16:30N 39°31' E 002°43'3 6.3
2018-Apr-01 16:00N 39°33' E 002°40'2 3.6
2018-Apr-01 15:29N 39°34' E 002°38'0 0.0
2018-Apr-01 14:50N 39°34' E 002°38'0 0.0
2018-Apr-01 14:29N 39°34' E 002°38'0 0.3
2018-Apr-01 14:00N 39°34' E 002°38'0 0.3
2018-Apr-01 13:28N 39°34' E 002°38'2 4.1
2018-Apr-01 13:00N 39°32' E 002°38'3 5.9
2018-Apr-01 12:27N 39°31' E 002°34'1 2.8
2018-Apr-01 11:55N 39°31' E 002°33'0 0.0
2018-Apr-01 11:16N 39°31' E 002°33'0 0.0
2018-Apr-01 10:40N 39°31' E 002°33'0 0.0
2018-Apr-01 10:28N 39°31' E 002°33'0 0.0
2018-Apr-01 09:58N 39°31' E 002°33'0 0.0
2018-Apr-01 09:28N 39°31' E 002°33'0 0.0
2018-Apr-01 08:55N 39°31' E 002°33'0 0.0
2018-Apr-01 07:19N 39°31' E 002°33'0 0.0
2018-Apr-01 06:58N 39°31' E 002°33'0 0.0
2018-Apr-01 06:28N 39°31' E 002°33'0 0.0
2018-Apr-01 05:49N 39°31' E 002°33'0 0.0
2018-Apr-01 05:28N 39°31' E 002°33'0 0.0
2018-Apr-01 04:58N 39°31' E 002°33'0 0.0
2018-Apr-01 04:25N 39°31' E 002°33'0 0.0
2018-Apr-01 03:46N 39°31' E 002°33'0 0.0
2018-Apr-01 03:28N 39°31' E 002°33'0 0.0
2018-Apr-01 02:58N 39°31' E 002°33'0 0.0
2018-Apr-01 02:25N 39°31' E 002°33'0 0.0
2018-Apr-01 01:55N 39°31' E 002°33'2 5.4
2018-Apr-01 01:29N 39°29' E 002°34'3 6.0
2018-Apr-01 01:00N 39°26' E 002°33'58 6.2
2018-Mar-31 15:40N 38°55' E 001°30'1 7.3
2018-Mar-31 15:30N 38°55' E 001°29'1 2.3
2018-Mar-31 14:59N 38°55' E 001°27'0 0.0
2018-Mar-31 14:29N 38°55' E 001°27'0 0.0
2018-Mar-31 13:59N 38°55' E 001°27'0 0.0
2018-Mar-31 13:29N 38°55' E 001°27'0 0.0
2018-Mar-31 12:59N 38°55' E 001°27'0 0.0
2018-Mar-31 12:29N 38°55' E 001°27'0 0.0
2018-Mar-31 11:59N 38°55' E 001°27'0 0.0
2018-Mar-31 11:29N 38°55' E 001°27'0 0.0
2018-Mar-31 10:56N 38°55' E 001°27'0 0.0
2018-Mar-31 10:29N 38°55' E 001°27'0 0.0
2018-Mar-31 09:59N 38°55' E 001°27'0 0.0
2018-Mar-31 09:29N 38°55' E 001°27'0 0.0
2018-Mar-31 08:59N 38°55' E 001°27'0 0.0
2018-Mar-31 08:29N 38°55' E 001°27'0 0.0
2018-Mar-31 07:59N 38°55' E 001°27'0 0.0
2018-Mar-31 07:29N 38°55' E 001°27'0 0.0
2018-Mar-31 06:59N 38°55' E 001°27'0 0.0
2018-Mar-31 06:29N 38°55' E 001°27'0 0.0
2018-Mar-31 05:59N 38°55' E 001°27'0 0.0
2018-Mar-31 05:29N 38°55' E 001°27'0 0.0
2018-Mar-31 04:59N 38°55' E 001°27'0 0.0
2018-Mar-31 04:29N 38°55' E 001°27'0 0.0
2018-Mar-31 03:59N 38°55' E 001°27'0 0.0
2018-Mar-31 03:29N 38°55' E 001°27'0 0.0
2018-Mar-31 02:56N 38°55' E 001°27'  
Track history (hours):
 
Tides and Currents Weather Stations Pressure Air Temp Water Temp Dewpoint Dewpoint Depression Visibility Wind Speed Wind Dir Waves Ship Positions

Fitti

Last reported at 2018-Apr-10 02:33 UTC. Time now 2018-Apr-25 16:16 UTC.
Position N 38°19' E 015°27'.
Warning: this ship's position is 15 days out of date.

Length 12 m.

Type: Sailing vessel. MMSI: 238137240.

Date/timePositionNaut miles runAvg speedWind from/ knotsBaromVisibWave heightAir tempDewpointWater temp
2018-Apr-10 02:33N 38°19' E 015°27'1 6.9
2018-Apr-10 02:26N 38°19' E 015°26'3 7.0
2018-Apr-10 02:00N 38°18' E 015°23'8 7.0
2018-Apr-10 00:52N 38°18' E 015°12'72 2.0
2018-Apr-08 13:00N 38°07' E 013°42'3 5.9
2018-Apr-08 12:29N 38°07' E 013°38'3 5.9
2018-Apr-08 11:59N 38°08' E 013°34'3 6.1
2018-Apr-08 11:30N 38°08' E 013°31'3 5.9
2018-Apr-08 10:58N 38°09' E 013°27'2 3.7
2018-Apr-08 10:30N 38°09' E 013°25'2 3.4
2018-Apr-08 09:59N 38°09' E 013°22'0 0.7
2018-Apr-08 09:27N 38°09' E 013°23'0 0.0
2018-Apr-08 08:57N 38°09' E 013°23'0 0.0
2018-Apr-08 08:27N 38°09' E 013°23'0 0.0
2018-Apr-08 07:54N 38°09' E 013°23'0 0.0
2018-Apr-08 07:27N 38°09' E 013°23'0 0.0
2018-Apr-08 07:00N 38°09' E 013°23'0 0.0
2018-Apr-08 06:30N 38°09' E 013°23'0 0.0
2018-Apr-08 05:57N 38°09' E 013°23'0 0.0
2018-Apr-08 05:30N 38°09' E 013°23'0 0.0
2018-Apr-08 05:00N 38°09' E 013°23'0 0.0
2018-Apr-08 04:30N 38°09' E 013°23'0 0.0
2018-Apr-08 04:00N 38°09' E 013°23'0 0.0
2018-Apr-08 03:30N 38°09' E 013°23'0 0.0
2018-Apr-08 03:00N 38°09' E 013°23'0 0.0
2018-Apr-08 02:18N 38°09' E 013°23'0 0.0
2018-Apr-08 02:00N 38°09' E 013°23'0 0.0
2018-Apr-08 01:30N 38°09' E 013°23'0 0.0
2018-Apr-08 01:00N 38°09' E 013°23'0 0.0
2018-Apr-08 00:30N 38°09' E 013°23'0 0.0
2018-Apr-08 00:00N 38°09' E 013°23'0 0.0
2018-Apr-07 23:18N 38°09' E 013°23'0 0.0
2018-Apr-07 22:51N 38°09' E 013°23'0 0.0
2018-Apr-07 22:24N 38°09' E 013°23'0 0.0
2018-Apr-07 21:54N 38°09' E 013°23'0 0.0
2018-Apr-07 21:24N 38°09' E 013°23'0 0.0
2018-Apr-07 20:54N 38°09' E 013°23'0 0.0
2018-Apr-07 20:24N 38°09' E 013°23'0 0.0
2018-Apr-07 19:54N 38°09' E 013°23'0 0.0
2018-Apr-07 19:27N 38°09' E 013°23'0 0.1
2018-Apr-07 19:00N 38°09' E 013°23'3 5.2
2018-Apr-07 18:30N 38°12' E 013°22'3 6.7
2018-Apr-07 18:00N 38°14' E 013°19'3 6.4
2018-Apr-07 17:29N 38°15' E 013°15'3 6.2
2018-Apr-07 17:00N 38°16' E 013°12'3 6.0
2018-Apr-07 16:30N 38°18' E 013°08'188 6.3
2018-Apr-06 10:30N 39°08' E 009°16'3 6.2
2018-Apr-06 09:59N 39°09' E 009°13'4 7.0
2018-Apr-06 09:29N 39°10' E 009°08'3 5.3
2018-Apr-06 08:59N 39°12' E 009°07'0 0.5
2018-Apr-06 08:29N 39°13' E 009°07'0 0.1
2018-Apr-06 08:00N 39°13' E 009°07'0 0.0
2018-Apr-06 07:30N 39°13' E 009°07'0 0.0
2018-Apr-06 07:00N 39°13' E 009°07'0 0.0
2018-Apr-06 06:30N 39°13' E 009°07'0 0.0
2018-Apr-06 06:00N 39°13' E 009°07'0 0.0
2018-Apr-06 05:30N 39°13' E 009°07'0 0.0
2018-Apr-06 05:00N 39°13' E 009°07'0 0.0
2018-Apr-06 04:30N 39°13' E 009°07'0 0.0
2018-Apr-06 04:00N 39°13' E 009°07'0 0.0
2018-Apr-06 03:30N 39°13' E 009°07'0 0.0
2018-Apr-06 03:00N 39°13' E 009°07'0 0.0
2018-Apr-06 02:30N 39°13' E 009°07'0 0.0
2018-Apr-06 02:00N 39°13' E 009°07'0 0.0
2018-Apr-06 01:30N 39°13' E 009°07'0 0.0
2018-Apr-06 01:00N 39°13' E 009°07'0 0.0
2018-Apr-06 00:30N 39°13' E 009°07'0 0.0
2018-Apr-06 00:00N 39°13' E 009°07'0 0.0
2018-Apr-05 23:30N 39°13' E 009°07'0 0.0
2018-Apr-05 23:00N 39°13' E 009°07'0 0.0
2018-Apr-05 22:30N 39°13' E 009°07'0 0.0
2018-Apr-05 22:00N 39°13' E 009°07'0 0.0
2018-Apr-05 21:30N 39°13' E 009°07'0 0.0
2018-Apr-05 21:00N 39°13' E 009°07'0 0.0
2018-Apr-05 20:30N 39°13' E 009°07'0 0.0
2018-Apr-05 20:00N 39°13' E 009°07'0 0.0
2018-Apr-05 19:30N 39°13' E 009°07'0 0.0
2018-Apr-05 19:00N 39°13' E 009°07'0 0.0
2018-Apr-05 18:30N 39°13' E 009°07'0 0.0
2018-Apr-05 18:00N 39°13' E 009°07'0 0.0
2018-Apr-05 17:30N 39°13' E 009°07'0 0.0
2018-Apr-05 17:00N 39°13' E 009°07'0 0.0
2018-Apr-05 16:30N 39°13' E 009°07'0 0.0
2018-Apr-05 16:00N 39°13' E 009°07'2 3.2
2018-Apr-05 15:30N 39°11' E 009°07'3 5.0
2018-Apr-05 14:59N 39°09' E 009°07'2 4.6
2018-Apr-05 14:30N 39°06' E 009°07'3 5.6
2018-Apr-05 14:01N 39°04' E 009°06'294 5.8
2018-Apr-03 11:09N 39°20' E 002°48'1 6.1
2018-Apr-03 11:00N 39°21' E 002°47'3 5.5
2018-Apr-03 10:31N 39°23' E 002°45'3 5.6
2018-Apr-03 10:00N 39°25' E 002°43'3 5.5
2018-Apr-03 09:30N 39°28' E 002°42'2 5.0
2018-Apr-03 09:00N 39°30' E 002°44'1 1.7
2018-Apr-03 08:28N 39°30' E 002°45'0 0.0
2018-Apr-03 07:58N 39°30' E 002°45'0 0.0
2018-Apr-03 07:25N 39°30' E 002°45'0 0.0
2018-Apr-03 06:58N 39°30' E 002°45'0 0.0
2018-Apr-03 06:28N 39°30' E 002°45'0 0.0
2018-Apr-03 05:58N 39°30' E 002°45'0 0.0
2018-Apr-03 05:28N 39°30' E 002°45'0 0.0
2018-Apr-03 04:58N 39°30' E 002°45'0 0.0
2018-Apr-03 04:28N 39°30' E 002°45'0 0.0
2018-Apr-03 03:58N 39°30' E 002°45'0 0.0
2018-Apr-03 03:28N 39°30' E 002°45'0 0.0
2018-Apr-03 02:58N 39°30' E 002°45'0 0.0
2018-Apr-03 02:28N 39°30' E 002°45'0 0.0
2018-Apr-03 01:58N 39°30' E 002°45'0 0.0
2018-Apr-03 01:28N 39°30' E 002°45'0 0.0
2018-Apr-03 00:58N 39°30' E 002°45'0 0.0
2018-Apr-03 00:28N 39°30' E 002°45'0 0.0
2018-Apr-02 23:13N 39°30' E 002°45'0 0.0
2018-Apr-02 22:58N 39°30' E 002°45'0 0.0
2018-Apr-02 22:28N 39°30' E 002°45'0 0.0
2018-Apr-02 21:55N 39°30' E 002°45'0 0.0
2018-Apr-02 21:30N 39°30' E 002°45'0 0.0
2018-Apr-02 21:00N 39°30' E 002°45'0 0.0
2018-Apr-02 20:30N 39°30' E 002°45'0 0.0
2018-Apr-02 20:00N 39°30' E 002°45'0 0.0
2018-Apr-02 19:30N 39°30' E 002°45'0 0.0
2018-Apr-02 19:00N 39°30' E 002°45'0 0.0
2018-Apr-02 18:30N 39°30' E 002°45'0 0.0
2018-Apr-02 18:00N 39°30' E 002°45'0 0.0
2018-Apr-02 17:30N 39°30' E 002°45'0 0.0
2018-Apr-02 17:00N 39°30' E 002°45'0 0.0
2018-Apr-02 16:30N 39°30' E 002°45'0 0.0
2018-Apr-02 16:00N 39°30' E 002°45'0 0.0
2018-Apr-02 15:30N 39°30' E 002°45'0 0.0
2018-Apr-02 15:00N 39°30' E 002°45'0 0.0
2018-Apr-02 14:30N 39°30' E 002°45'0 0.0
2018-Apr-02 13:58N 39°30' E 002°45'0 0.0
2018-Apr-02 13:25N 39°30' E 002°45'0 0.0
2018-Apr-02 12:58N 39°30' E 002°45'0 0.0
2018-Apr-02 12:28N 39°30' E 002°45'0 0.0
2018-Apr-02 11:58N 39°30' E 002°45'0 0.0
2018-Apr-02 11:28N 39°30' E 002°45'0 0.0
2018-Apr-02 10:58N 39°30' E 002°45'0 0.0
2018-Apr-02 10:28N 39°30' E 002°45'0 0.0
2018-Apr-02 09:58N 39°30' E 002°45'0 0.0
2018-Apr-02 09:28N 39°30' E 002°45'0 0.0
2018-Apr-02 08:58N 39°30' E 002°45'0 0.0
2018-Apr-02 08:28N 39°30' E 002°45'0 0.0
2018-Apr-02 07:58N 39°30' E 002°45'0 0.0
2018-Apr-02 07:28N 39°30' E 002°45'0 0.0
2018-Apr-02 06:58N 39°30' E 002°45'0 0.0
2018-Apr-02 06:28N 39°30' E 002°45'0 0.0
2018-Apr-02 05:58N 39°30' E 002°45'0 0.0
2018-Apr-02 05:28N 39°30' E 002°45'0 0.0
2018-Apr-02 04:58N 39°30' E 002°45'0 0.0
2018-Apr-02 04:28N 39°30' E 002°45'0 0.0
2018-Apr-02 03:58N 39°30' E 002°45'0 0.0
2018-Apr-02 03:28N 39°30' E 002°45'0 0.0
2018-Apr-02 02:58N 39°30' E 002°45'0 0.0
2018-Apr-02 02:28N 39°30' E 002°45'0 0.0
2018-Apr-02 01:58N 39°30' E 002°45'0 0.0
2018-Apr-02 01:28N 39°30' E 002°45'0 0.0
2018-Apr-02 00:58N 39°30' E 002°45'0 0.0
2018-Apr-02 00:28N 39°30' E 002°45'0 0.0
2018-Apr-01 23:59N 39°30' E 002°45'0 0.0
2018-Apr-01 23:29N 39°30' E 002°45'0 0.0
2018-Apr-01 22:59N 39°30' E 002°45'0 0.0
2018-Apr-01 22:29N 39°30' E 002°45'0 0.0
2018-Apr-01 21:59N 39°30' E 002°45'0 0.0
2018-Apr-01 21:30N 39°30' E 002°45'0 0.0
2018-Apr-01 20:59N 39°30' E 002°45'0 0.0
2018-Apr-01 20:29N 39°30' E 002°45'0 0.0
2018-Apr-01 19:59N 39°30' E 002°45'0 0.0
2018-Apr-01 19:29N 39°30' E 002°45'0 0.0
2018-Apr-01 18:59N 39°30' E 002°45'0 0.0
2018-Apr-01 18:29N 39°30' E 002°45'0 0.0
2018-Apr-01 17:59N 39°30' E 002°45'0 0.0
2018-Apr-01 17:29N 39°30' E 002°45'0 0.0
2018-Apr-01 16:59N 39°30' E 002°45'1 3.1
2018-Apr-01 16:30N 39°31' E 002°43'3 6.3
2018-Apr-01 16:00N 39°33' E 002°40'2 3.6
2018-Apr-01 15:29N 39°34' E 002°38'0 0.0
2018-Apr-01 14:50N 39°34' E 002°38'0 0.0
2018-Apr-01 14:29N 39°34' E 002°38'0 0.3
2018-Apr-01 14:00N 39°34' E 002°38'0 0.3
2018-Apr-01 13:28N 39°34' E 002°38'2 4.1
2018-Apr-01 13:00N 39°32' E 002°38'3 5.9
2018-Apr-01 12:27N 39°31' E 002°34'1 2.8
2018-Apr-01 11:55N 39°31' E 002°33'0 0.0
2018-Apr-01 11:16N 39°31' E 002°33'0 0.0
2018-Apr-01 10:40N 39°31' E 002°33'0 0.0
2018-Apr-01 10:28N 39°31' E 002°33'0 0.0
2018-Apr-01 09:58N 39°31' E 002°33'0 0.0
2018-Apr-01 09:28N 39°31' E 002°33'0 0.0
2018-Apr-01 08:55N 39°31' E 002°33'0 0.0
2018-Apr-01 07:19N 39°31' E 002°33'0 0.0
2018-Apr-01 06:58N 39°31' E 002°33'0 0.0
2018-Apr-01 06:28N 39°31' E 002°33'0 0.0
2018-Apr-01 05:49N 39°31' E 002°33'0 0.0
2018-Apr-01 05:28N 39°31' E 002°33'0 0.0
2018-Apr-01 04:58N 39°31' E 002°33'0 0.0
2018-Apr-01 04:25N 39°31' E 002°33'0 0.0
2018-Apr-01 03:46N 39°31' E 002°33'0 0.0
2018-Apr-01 03:28N 39°31' E 002°33'0 0.0
2018-Apr-01 02:58N 39°31' E 002°33'0 0.0
2018-Apr-01 02:25N 39°31' E 002°33'0 0.0
2018-Apr-01 01:55N 39°31' E 002°33'2 5.4
2018-Apr-01 01:29N 39°29' E 002°34'3 6.0
2018-Apr-01 01:00N 39°26' E 002°33'58 6.2
2018-Mar-31 15:40N 38°55' E 001°30'1 7.3
2018-Mar-31 15:30N 38°55' E 001°29'1 2.3
2018-Mar-31 14:59N 38°55' E 001°27'0 0.0
2018-Mar-31 14:29N 38°55' E 001°27'0 0.0
2018-Mar-31 13:59N 38°55' E 001°27'0 0.0
2018-Mar-31 13:29N 38°55' E 001°27'0 0.0
2018-Mar-31 12:59N 38°55' E 001°27'0 0.0
2018-Mar-31 12:29N 38°55' E 001°27'0 0.0
2018-Mar-31 11:59N 38°55' E 001°27'0 0.0
2018-Mar-31 11:29N 38°55' E 001°27'0 0.0
2018-Mar-31 10:56N 38°55' E 001°27'0 0.0
2018-Mar-31 10:29N 38°55' E 001°27'0 0.0
2018-Mar-31 09:59N 38°55' E 001°27'0 0.0
2018-Mar-31 09:29N 38°55' E 001°27'0 0.0
2018-Mar-31 08:59N 38°55' E 001°27'0 0.0
2018-Mar-31 08:29N 38°55' E 001°27'0 0.0
2018-Mar-31 07:59N 38°55' E 001°27'0 0.0
2018-Mar-31 07:29N 38°55' E 001°27'0 0.0
2018-Mar-31 06:59N 38°55' E 001°27'0 0.0
2018-Mar-31 06:29N 38°55' E 001°27'0 0.0
2018-Mar-31 05:59N 38°55' E 001°27'0 0.0
2018-Mar-31 05:29N 38°55' E 001°27'0 0.0
2018-Mar-31 04:59N 38°55' E 001°27'0 0.0
2018-Mar-31 04:29N 38°55' E 001°27'0 0.0
2018-Mar-31 03:59N 38°55' E 001°27'0 0.0
2018-Mar-31 03:29N 38°55' E 001°27'0 0.0
2018-Mar-31 02:56N 38°55' E 001°27'  

Dump ship's entire track history